• Join FlightAware (Why Join?)
  • Login
  • US Flag 
02:23PM EDT


 

Airport Tracker/Info


-or-


 

Live Flight TrackerFlight Track Log ✈ N8257H ✈ 27-Apr-2013 ✈ KDET - KTVC

Flight Track Log - Related Links

Times and Time Zones

All times are in EDT time to prevent confusion due to time zone crossing. See the N8257H flight status page for this flight to view local times or setup timezone preferences in your user account.

Time Position Orientation Groundspeed Altitude Reporting Facility
EDT Latitude Longitude Course Direction KTS MPH feet Rate Location/Type
05:35PM 42.3869 -82.9925 277° West 135 155 1,900  Level Cleveland Center
05:36PM 42.3781 -83.0200 246° West 168 193 2,800 540 Climbing Cleveland Center
05:37PM 42.4294 -83.0586 331° Northwest 198 228 3,100 120 Climbing Cleveland Center
05:38PM 42.4700 -83.1081 318° Northwest 194 223 3,100  Level Cleveland Center
05:39PM 42.5106 -83.1606 316° Northwest 196 226 3,100  Level Cleveland Center
05:40PM 42.5556 -83.2017 326° Northwest 196 226 3,100 540 Level Cleveland Center
05:41PM 42.4519 -83.4363 277° West  Level FlightAware Approximate
05:41PM 42.5961 -83.2431 323° Northwest 170 196 4,200  Level Cleveland Center
05:42PM 42.6306 -83.2839 319° Northwest 171 197 5,000 420 Climbing Cleveland Center
05:43PM 42.6692 -83.3308 318° Northwest 204 235 5,100 240 Climbing Cleveland Center
05:45PM 42.7166 -83.3700 329° Northwest  Level FlightAware Approximate
05:52PM 43.0034 -83.6507 322° Northwest  Level FlightAware Approximate
05:53PM 43.0429 -83.6936 322° Northwest  Level FlightAware Approximate
05:54PM 43.0824 -83.7366 322° Northwest  Level FlightAware Approximate
05:54PM 43.1036 -83.7903 322° Northwest 202 232 8,000  Level Minneapolis Center
05:55PM 43.1219 -83.7796 321° Northwest  Level FlightAware Approximate
05:55PM 43.1483 -83.8389 322° Northwest 202 232 8,000  Level Minneapolis Center
05:56PM 43.1613 -83.8227 321° Northwest  Level FlightAware Approximate
05:56PM 43.1908 -83.8850 322° Northwest 201 231 8,000  Level Minneapolis Center
05:57PM 43.2007 -83.8659 321° Northwest  Level FlightAware Approximate
05:57PM 43.2378 -83.9308 325° Northwest 201 231 8,000  Level Minneapolis Center
05:58PM 43.2402 -83.9089 322° Northwest  Level FlightAware Approximate
05:58PM 43.2828 -83.9775 323° Northwest 203 234 8,000  Level Minneapolis Center
05:59PM 43.2797 -83.9520 322° Northwest  Level FlightAware Approximate
05:59PM 43.3258 -84.0267 320° Northwest 203 234 8,000  Level Minneapolis Center
06:00PM 43.3717 -84.0678 327° Northwest 201 231 7,900  Descending Minneapolis Center
06:01PM 43.4144 -84.1142 322° Northwest 199 229 8,000  Climbing Minneapolis Center
06:02PM 43.4650 -84.1722 320° Northwest 199 229 8,000  Level Minneapolis Center
06:03PM 43.5092 -84.2197 322° Northwest 199 229 8,000  Level Minneapolis Center
06:04PM 43.5522 -84.2658 322° Northwest 199 229 8,000  Level Minneapolis Center
06:05PM 43.5947 -84.3122 322° Northwest 198 228 8,000  Level Minneapolis Center
06:06PM 43.6372 -84.3583 322° Northwest 197 227 8,000  Level Minneapolis Center
06:07PM 43.6800 -84.4036 323° Northwest 195 224 8,000  Level Minneapolis Center
06:08PM 43.7297 -84.4619 320° Northwest 195 224 8,000  Level Minneapolis Center
06:09PM 43.7744 -84.5069 324° Northwest 197 227 8,000  Level Minneapolis Center
06:10PM 43.8200 -84.5483 327° Northwest 197 227 8,000  Level Minneapolis Center
06:11PM 43.8617 -84.5964 320° Northwest 196 226 8,000  Level Minneapolis Center
06:12PM 43.9025 -84.6458 319° Northwest 196 226 8,000  Level Minneapolis Center
06:13PM 43.9447 -84.6947 320° Northwest 197 227 8,000  Level Minneapolis Center
06:14PM 43.9869 -84.7428 321° Northwest 197 227 8,000  Level Minneapolis Center
06:15PM 44.0267 -84.7872 321° Northwest 193 222 8,000  Level Minneapolis Center
06:16PM 44.0778 -84.8428 322° Northwest 193 222 8,000  Level Minneapolis Center
06:17PM 44.1192 -84.8892 321° Northwest 192 221 8,000  Level Minneapolis Center
06:18PM 44.1617 -84.9353 322° Northwest 193 222 8,000 -120 Level Minneapolis Center
06:19PM 44.2039 -84.9850 320° Northwest 196 226 7,800 -240 Descending Minneapolis Center
06:20PM 44.2500 -85.0294 325° Northwest 199 229 7,600 -300 Descending Minneapolis Center
06:22PM 44.2969 -85.0708 328° Northwest 199 229 7,300 -360 Descending Minneapolis Center
06:23PM 44.3503 -85.0967 341° North 199 229 6,900 -540 Descending Minneapolis Center
06:24PM 44.4100 -85.1436 331° Northwest 204 235 6,300 -660 Descending Minneapolis Center
06:25PM 44.4478 -85.2069 310° West 210 242 5,600 -660 Descending Minneapolis Center
06:26PM 44.4836 -85.2686 309° West 208 239 5,000 -540 Descending Minneapolis Center
06:27PM 44.5236 -85.3211 317° Northwest 203 234 4,500 -540 Descending Minneapolis Center
06:28PM 44.5664 -85.3708 320° Northwest 201 231 3,900 -600 Descending Minneapolis Center
06:29PM 44.6100 -85.4214 320° Northwest 202 232 3,300 -780 Descending Minneapolis Center
06:30PM 44.6586 -85.4567 333° Northwest 200 230 2,400 -720 Descending Minneapolis Center
06:31PM 44.7061 -85.4853 337° Northwest 194 223 1,900 -540 Descending Minneapolis Center
06:32PM 44.7369 -85.5242 318° Northwest 151 174 1,300 -300 Descending Minneapolis Center
06:33PM 44.7456 -85.5631 287° West 143 165 1,300  Level Minneapolis Center